Ferry Tsurugi — JI3553 — position and weather

sailwx.info

Track history (hours):
 
Tides and Currents Weather Stations Pressure Air Temp Water Temp Dewpoint Dewpoint Depression Visibility Wind Speed Wind Dir Waves Ship Positions

Ferry Tsurugi

Last reported at 2017-Oct-19 21:16 UTC. Time now 2017-Oct-19 23:41 UTC.
Position N 34°08' E 134°58'.

Length 108 m; draft 4 m.

Type: Passenger vessel. MMSI: 431500658.

Date/timePositionNaut miles runAvg speedWind from/ knotsBaromVisibWave heightAir tempDewpointWater temp
2017-Oct-19 21:16N 34°08' E 134°58'415.9
2017-Oct-19 21:00N 34°10' E 135°02'612.3
2017-Oct-19 20:31N 34°13' E 135°09'1 1.5
2017-Oct-19 20:00N 34°13' E 135°08'814.5
2017-Oct-19 19:26N 34°09' E 134°58'2 0.3
2017-Oct-19 13:29N 34°09' E 134°56'713.8
2017-Oct-19 13:00N 34°11' E 135°04'4 8.8
2017-Oct-19 12:30N 34°13' E 135°09'0 0.1
2017-Oct-19 12:00N 34°13' E 135°09'13 3.5
2017-Oct-19 08:19N 34°09' E 134°54'515.6
2017-Oct-19 08:00N 34°12' E 134°59'714.7
2017-Oct-19 07:30N 34°13' E 135°08'1 1.8
2017-Oct-19 07:00N 34°13' E 135°09'0 0.5
2017-Oct-19 06:31N 34°13' E 135°08'714.7
2017-Oct-19 06:00N 34°10' E 135°00'1 0.4
2017-Oct-19 02:12N 34°09' E 134°59'315.0
2017-Oct-19 02:00N 34°11' E 135°02'611.6
2017-Oct-19 01:30N 34°13' E 135°09'1 1.3
2017-Oct-19 01:01N 34°13' E 135°08'815.2
2017-Oct-19 00:30N 34°10' E 134°59'1 0.3
2017-Oct-18 21:13N 34°09' E 134°58'315.7
2017-Oct-18 21:00N 34°11' E 135°02'612.1
2017-Oct-18 20:30N 34°13' E 135°09'1 2.5
2017-Oct-18 20:01N 34°13' E 135°07'814.4
2017-Oct-18 19:25N 34°09' E 134°58'2 0.3
2017-Oct-18 13:27N 34°10' E 134°57'614.1
2017-Oct-18 13:00N 34°12' E 135°04'4 8.4
2017-Oct-18 12:30N 34°13' E 135°09'0 0.1
2017-Oct-18 12:01N 34°13' E 135°09'713.3
2017-Oct-18 11:30N 34°10' E 135°01'2 0.7
2017-Oct-18 08:03N 34°11' E 134°58'115.6
2017-Oct-18 08:00N 34°11' E 134°59'715.5
2017-Oct-18 07:31N 34°13' E 135°08'1 1.6
2017-Oct-18 07:01N 34°13' E 135°09'1 1.3
2017-Oct-18 06:30N 34°13' E 135°08'8 1.7
2017-Oct-18 02:11N 34°11' E 134°59'314.1
2017-Oct-18 02:00N 34°12' E 135°02'511.2
2017-Oct-18 01:31N 34°13' E 135°09'1 1.3
2017-Oct-18 01:00N 34°13' E 135°08'7 1.9
2017-Oct-17 21:07N 34°11' E 134°59'216.3
2017-Oct-17 21:00N 34°11' E 135°02'612.4
2017-Oct-17 20:30N 34°13' E 135°09'0 0.9
2017-Oct-17 20:01N 34°13' E 135°08'814.9
2017-Oct-17 19:27N 34°11' E 134°58'2 0.3
2017-Oct-17 13:26N 34°10' E 134°56'614.0
2017-Oct-17 13:00N 34°12' E 135°04'4 8.5
2017-Oct-17 12:30N 34°13' E 135°09'0 0.1
2017-Oct-17 12:00N 34°13' E 135°09'713.8
2017-Oct-17 11:31N 34°11' E 135°01'3 0.8
2017-Oct-17 08:05N 34°11' E 134°57'115.7
2017-Oct-17 08:00N 34°11' E 134°59'815.2
2017-Oct-17 07:30N 34°13' E 135°08'1 1.6
2017-Oct-17 07:01N 34°13' E 135°09'1 1.4
2017-Oct-17 06:30N 34°13' E 135°08'9 2.2
2017-Oct-17 02:17N 34°10' E 134°57'414.7
2017-Oct-17 02:00N 34°11' E 135°02'611.5
2017-Oct-17 01:30N 34°13' E 135°09'1 1.4
2017-Oct-17 01:00N 34°13' E 135°08'8 2.1
2017-Oct-16 21:10N 34°10' E 134°58'316.5
2017-Oct-16 21:00N 34°11' E 135°01'612.5
2017-Oct-16 20:30N 34°13' E 135°09'0 0.8
2017-Oct-16 20:01N 34°13' E 135°08'714.8
2017-Oct-16 19:30N 34°11' E 134°59'1 0.2
2017-Oct-16 13:19N 34°10' E 134°58'414.5
2017-Oct-16 13:00N 34°12' E 135°03'4 9.0
2017-Oct-16 12:30N 34°13' E 135°09'0 0.1
2017-Oct-16 12:00N 34°13' E 135°09'612.8
2017-Oct-16 11:30N 34°11' E 135°01'3 0.9
2017-Oct-16 08:05N 34°10' E 134°57'215.8
2017-Oct-16 07:58N 34°11' E 134°59'715.5
2017-Oct-16 07:30N 34°13' E 135°08'1 1.4
2017-Oct-16 07:00N 34°13' E 135°09'1 1.5
2017-Oct-16 06:30N 34°13' E 135°08'814.5
2017-Oct-16 05:59N 34°11' E 134°59'2 0.6
2017-Oct-16 02:22N 34°10' E 134°57'514.7
2017-Oct-16 02:00N 34°12' E 135°02'510.5
2017-Oct-16 01:30N 34°13' E 135°09'1 2.7
2017-Oct-16 01:00N 34°13' E 135°07'8 2.2
2017-Oct-15 21:14N 34°10' E 134°58'415.5
2017-Oct-15 21:00N 34°11' E 135°01'612.3
2017-Oct-15 20:30N 34°13' E 135°09'1 1.7
2017-Oct-15 20:00N 34°13' E 135°08'814.5
2017-Oct-15 19:28N 34°09' E 134°59'1 0.2
2017-Oct-15 13:18N 34°10' E 134°59'414.2
2017-Oct-15 13:00N 34°12' E 135°04'4 8.8
2017-Oct-15 12:30N 34°13' E 135°09'0 0.1
2017-Oct-15 12:01N 34°13' E 135°09'9 2.2
2017-Oct-15 08:03N 34°10' E 134°58'215.5
2017-Oct-15 07:56N 34°11' E 135°00'715.4
2017-Oct-15 07:30N 34°13' E 135°08'1 1.1
2017-Oct-15 07:00N 34°13' E 135°09'1 1.2
2017-Oct-15 06:30N 34°13' E 135°08'8 2.0
2017-Oct-15 02:14N 34°10' E 134°58'314.5
2017-Oct-15 02:00N 34°11' E 135°02'611.3
2017-Oct-15 01:31N 34°13' E 135°09'1 1.0
2017-Oct-15 01:01N 34°13' E 135°08'8 2.2
2017-Oct-14 21:10N 34°10' E 134°58'316.5
2017-Oct-14 21:00N 34°11' E 135°01'612.4
2017-Oct-14 20:30N 34°13' E 135°09'0 0.7
2017-Oct-14 20:01N 34°13' E 135°08'814.3
2017-Oct-14 19:29N 34°11' E 134°59'1 0.2
2017-Oct-14 13:19N 34°10' E 134°58'514.6
2017-Oct-14 13:00N 34°12' E 135°03'4 8.8
2017-Oct-14 12:30N 34°13' E 135°09'0 0.0
2017-Oct-14 12:01N 34°13' E 135°09'713.1
2017-Oct-14 11:27N 34°10' E 135°01'2 0.5
2017-Oct-14 08:01N 34°11' E 134°59'115.2
2017-Oct-14 07:57N 34°11' E 134°60'715.5
2017-Oct-14 07:31N 34°13' E 135°08'1 1.5
2017-Oct-14 07:01N 34°13' E 135°09'0 0.8
2017-Oct-14 06:31N 34°13' E 135°08'8 1.9
2017-Oct-14 02:12N 34°10' E 134°59'314.4
2017-Oct-14 02:00N 34°11' E 135°02'611.4
2017-Oct-14 01:30N 34°13' E 135°09'1 1.1
2017-Oct-14 01:01N 34°13' E 135°08'8 2.2
2017-Oct-13 21:10N 34°10' E 134°58'316.3
2017-Oct-13 21:00N 34°11' E 135°01'612.8
2017-Oct-13 20:31N 34°13' E 135°09'1 1.3
2017-Oct-13 20:01N 34°13' E 135°08'714.4
2017-Oct-13 19:30N 34°10' E 134°60'2 0.3
2017-Oct-13 13:21N 34°10' E 134°58'514.6
2017-Oct-13 13:01N 34°12' E 135°03'5 9.1
2017-Oct-13 12:31N 34°13' E 135°09'0 0.1
2017-Oct-13 12:00N 34°13' E 135°09'6 1.5
2017-Oct-13 07:51N 34°11' E 135°01'515.7
2017-Oct-13 07:30N 34°13' E 135°07'1 1.9
2017-Oct-13 07:00N 34°13' E 135°09'0 0.4
2017-Oct-13 06:31N 34°13' E 135°08'11 2.6
2017-Oct-13 02:21N 34°09' E 134°56'514.9
2017-Oct-13 02:00N 34°11' E 135°02'611.6
2017-Oct-13 01:30N 34°13' E 135°09'1 1.0
2017-Oct-13 01:01N 34°13' E 135°08'9 2.4
2017-Oct-12 21:12N 34°10' E 134°58'316.9
2017-Oct-12 21:00N 34°11' E 135°01'612.6
2017-Oct-12 20:30N 34°13' E 135°09'1 1.6
2017-Oct-12 20:00N 34°13' E 135°08'714.8
2017-Oct-12 19:30N 34°08' E 135°00'2 0.4
2017-Oct-12 13:16N 34°11' E 134°59'414.8
2017-Oct-12 13:00N 34°12' E 135°04'4 8.5
2017-Oct-12 12:31N 34°13' E 135°09'0 0.0
2017-Oct-12 12:00N 34°13' E 135°09'10 2.4
2017-Oct-12 08:04N 34°10' E 134°58'116.3
2017-Oct-12 08:01N 34°10' E 134°59'815.7
2017-Oct-12 07:30N 34°13' E 135°08'1 1.7
2017-Oct-12 07:00N 34°13' E 135°09'0 0.8
2017-Oct-12 06:30N 34°13' E 135°08'714.8
2017-Oct-12 06:01N 34°11' E 134°60'2 0.7
2017-Oct-12 02:20N 34°10' E 134°57'514.9
2017-Oct-12 02:00N 34°12' E 135°02'510.8
2017-Oct-12 01:31N 34°13' E 135°09'1 1.8
2017-Oct-12 01:01N 34°13' E 135°08'8 2.1
2017-Oct-11 21:11N 34°10' E 134°58'316.2
2017-Oct-11 21:01N 34°11' E 135°02'612.2
2017-Oct-11 20:30N 34°13' E 135°09'1 1.0
2017-Oct-11 20:00N 34°13' E 135°08'8 0.4
2017-Oct-10 21:09N 34°10' E 134°59'316.4
2017-Oct-10 21:00N 34°11' E 135°02'612.6
2017-Oct-10 20:30N 34°13' E 135°09'1 1.6
2017-Oct-10 20:00N 34°13' E 135°08'714.4
2017-Oct-10 19:30N 34°09' E 134°60'3 0.6
2017-Oct-10 13:28N 34°10' E 134°56'714.6
2017-Oct-10 13:00N 34°12' E 135°03'4 9.0
2017-Oct-10 12:31N 34°13' E 135°09'0 0.0
2017-Oct-10 12:00N 34°13' E 135°09'713.0
2017-Oct-10 11:30N 34°11' E 135°01'1 0.3
2017-Oct-10 07:56N 34°11' E 134°60'715.7
2017-Oct-10 07:30N 34°13' E 135°07'1 2.0
2017-Oct-10 07:01N 34°13' E 135°09'0 0.6
2017-Oct-10 06:30N 34°13' E 135°08'714.4
2017-Oct-10 06:00N 34°10' E 135°00'3 1.0
2017-Oct-10 02:22N 34°10' E 134°56'514.7
2017-Oct-10 02:01N 34°12' E 135°02'611.0
2017-Oct-10 01:30N 34°13' E 135°09'1 1.5
2017-Oct-10 01:00N 34°13' E 135°08'814.5
2017-Oct-10 00:29N 34°10' E 134°59'  
Track history (hours):
 
Tides and Currents Weather Stations Pressure Air Temp Water Temp Dewpoint Dewpoint Depression Visibility Wind Speed Wind Dir Waves Ship Positions

Ferry Tsurugi

Last reported at 2017-Oct-19 21:16 UTC. Time now 2017-Oct-19 23:41 UTC.
Position N 34°08' E 134°58'.

Length 108 m; draft 4 m.

Type: Passenger vessel. MMSI: 431500658.

Date/timePositionNaut miles runAvg speedWind from/ knotsBaromVisibWave heightAir tempDewpointWater temp
2017-Oct-19 21:16N 34°08' E 134°58'415.9
2017-Oct-19 21:00N 34°10' E 135°02'612.3
2017-Oct-19 20:31N 34°13' E 135°09'1 1.5
2017-Oct-19 20:00N 34°13' E 135°08'814.5
2017-Oct-19 19:26N 34°09' E 134°58'2 0.3
2017-Oct-19 13:29N 34°09' E 134°56'713.8
2017-Oct-19 13:00N 34°11' E 135°04'4 8.8
2017-Oct-19 12:30N 34°13' E 135°09'0 0.1
2017-Oct-19 12:00N 34°13' E 135°09'13 3.5
2017-Oct-19 08:19N 34°09' E 134°54'515.6
2017-Oct-19 08:00N 34°12' E 134°59'714.7
2017-Oct-19 07:30N 34°13' E 135°08'1 1.8
2017-Oct-19 07:00N 34°13' E 135°09'0 0.5
2017-Oct-19 06:31N 34°13' E 135°08'714.7
2017-Oct-19 06:00N 34°10' E 135°00'1 0.4
2017-Oct-19 02:12N 34°09' E 134°59'315.0
2017-Oct-19 02:00N 34°11' E 135°02'611.6
2017-Oct-19 01:30N 34°13' E 135°09'1 1.3
2017-Oct-19 01:01N 34°13' E 135°08'815.2
2017-Oct-19 00:30N 34°10' E 134°59'1 0.3
2017-Oct-18 21:13N 34°09' E 134°58'315.7
2017-Oct-18 21:00N 34°11' E 135°02'612.1
2017-Oct-18 20:30N 34°13' E 135°09'1 2.5
2017-Oct-18 20:01N 34°13' E 135°07'814.4
2017-Oct-18 19:25N 34°09' E 134°58'2 0.3
2017-Oct-18 13:27N 34°10' E 134°57'614.1
2017-Oct-18 13:00N 34°12' E 135°04'4 8.4
2017-Oct-18 12:30N 34°13' E 135°09'0 0.1
2017-Oct-18 12:01N 34°13' E 135°09'713.3
2017-Oct-18 11:30N 34°10' E 135°01'2 0.7
2017-Oct-18 08:03N 34°11' E 134°58'115.6
2017-Oct-18 08:00N 34°11' E 134°59'715.5
2017-Oct-18 07:31N 34°13' E 135°08'1 1.6
2017-Oct-18 07:01N 34°13' E 135°09'1 1.3
2017-Oct-18 06:30N 34°13' E 135°08'8 1.7
2017-Oct-18 02:11N 34°11' E 134°59'314.1
2017-Oct-18 02:00N 34°12' E 135°02'511.2
2017-Oct-18 01:31N 34°13' E 135°09'1 1.3
2017-Oct-18 01:00N 34°13' E 135°08'7 1.9
2017-Oct-17 21:07N 34°11' E 134°59'216.3
2017-Oct-17 21:00N 34°11' E 135°02'612.4
2017-Oct-17 20:30N 34°13' E 135°09'0 0.9
2017-Oct-17 20:01N 34°13' E 135°08'814.9
2017-Oct-17 19:27N 34°11' E 134°58'2 0.3
2017-Oct-17 13:26N 34°10' E 134°56'614.0
2017-Oct-17 13:00N 34°12' E 135°04'4 8.5
2017-Oct-17 12:30N 34°13' E 135°09'0 0.1
2017-Oct-17 12:00N 34°13' E 135°09'713.8
2017-Oct-17 11:31N 34°11' E 135°01'3 0.8
2017-Oct-17 08:05N 34°11' E 134°57'115.7
2017-Oct-17 08:00N 34°11' E 134°59'815.2
2017-Oct-17 07:30N 34°13' E 135°08'1 1.6
2017-Oct-17 07:01N 34°13' E 135°09'1 1.4
2017-Oct-17 06:30N 34°13' E 135°08'9 2.2
2017-Oct-17 02:17N 34°10' E 134°57'414.7
2017-Oct-17 02:00N 34°11' E 135°02'611.5
2017-Oct-17 01:30N 34°13' E 135°09'1 1.4
2017-Oct-17 01:00N 34°13' E 135°08'8 2.1
2017-Oct-16 21:10N 34°10' E 134°58'316.5
2017-Oct-16 21:00N 34°11' E 135°01'612.5
2017-Oct-16 20:30N 34°13' E 135°09'0 0.8
2017-Oct-16 20:01N 34°13' E 135°08'714.8
2017-Oct-16 19:30N 34°11' E 134°59'1 0.2
2017-Oct-16 13:19N 34°10' E 134°58'414.5
2017-Oct-16 13:00N 34°12' E 135°03'4 9.0
2017-Oct-16 12:30N 34°13' E 135°09'0 0.1
2017-Oct-16 12:00N 34°13' E 135°09'612.8
2017-Oct-16 11:30N 34°11' E 135°01'3 0.9
2017-Oct-16 08:05N 34°10' E 134°57'215.8
2017-Oct-16 07:58N 34°11' E 134°59'715.5
2017-Oct-16 07:30N 34°13' E 135°08'1 1.4
2017-Oct-16 07:00N 34°13' E 135°09'1 1.5
2017-Oct-16 06:30N 34°13' E 135°08'814.5
2017-Oct-16 05:59N 34°11' E 134°59'2 0.6
2017-Oct-16 02:22N 34°10' E 134°57'514.7
2017-Oct-16 02:00N 34°12' E 135°02'510.5
2017-Oct-16 01:30N 34°13' E 135°09'1 2.7
2017-Oct-16 01:00N 34°13' E 135°07'8 2.2
2017-Oct-15 21:14N 34°10' E 134°58'415.5
2017-Oct-15 21:00N 34°11' E 135°01'612.3
2017-Oct-15 20:30N 34°13' E 135°09'1 1.7
2017-Oct-15 20:00N 34°13' E 135°08'814.5
2017-Oct-15 19:28N 34°09' E 134°59'1 0.2
2017-Oct-15 13:18N 34°10' E 134°59'414.2
2017-Oct-15 13:00N 34°12' E 135°04'4 8.8
2017-Oct-15 12:30N 34°13' E 135°09'0 0.1
2017-Oct-15 12:01N 34°13' E 135°09'9 2.2
2017-Oct-15 08:03N 34°10' E 134°58'215.5
2017-Oct-15 07:56N 34°11' E 135°00'715.4
2017-Oct-15 07:30N 34°13' E 135°08'1 1.1
2017-Oct-15 07:00N 34°13' E 135°09'1 1.2
2017-Oct-15 06:30N 34°13' E 135°08'8 2.0
2017-Oct-15 02:14N 34°10' E 134°58'314.5
2017-Oct-15 02:00N 34°11' E 135°02'611.3
2017-Oct-15 01:31N 34°13' E 135°09'1 1.0
2017-Oct-15 01:01N 34°13' E 135°08'8 2.2
2017-Oct-14 21:10N 34°10' E 134°58'316.5
2017-Oct-14 21:00N 34°11' E 135°01'612.4
2017-Oct-14 20:30N 34°13' E 135°09'0 0.7
2017-Oct-14 20:01N 34°13' E 135°08'814.3
2017-Oct-14 19:29N 34°11' E 134°59'1 0.2
2017-Oct-14 13:19N 34°10' E 134°58'514.6
2017-Oct-14 13:00N 34°12' E 135°03'4 8.8
2017-Oct-14 12:30N 34°13' E 135°09'0 0.0
2017-Oct-14 12:01N 34°13' E 135°09'713.1
2017-Oct-14 11:27N 34°10' E 135°01'2 0.5
2017-Oct-14 08:01N 34°11' E 134°59'115.2
2017-Oct-14 07:57N 34°11' E 134°60'715.5
2017-Oct-14 07:31N 34°13' E 135°08'1 1.5
2017-Oct-14 07:01N 34°13' E 135°09'0 0.8
2017-Oct-14 06:31N 34°13' E 135°08'8 1.9
2017-Oct-14 02:12N 34°10' E 134°59'314.4
2017-Oct-14 02:00N 34°11' E 135°02'611.4
2017-Oct-14 01:30N 34°13' E 135°09'1 1.1
2017-Oct-14 01:01N 34°13' E 135°08'8 2.2
2017-Oct-13 21:10N 34°10' E 134°58'316.3
2017-Oct-13 21:00N 34°11' E 135°01'612.8
2017-Oct-13 20:31N 34°13' E 135°09'1 1.3
2017-Oct-13 20:01N 34°13' E 135°08'714.4
2017-Oct-13 19:30N 34°10' E 134°60'2 0.3
2017-Oct-13 13:21N 34°10' E 134°58'514.6
2017-Oct-13 13:01N 34°12' E 135°03'5 9.1
2017-Oct-13 12:31N 34°13' E 135°09'0 0.1
2017-Oct-13 12:00N 34°13' E 135°09'6 1.5
2017-Oct-13 07:51N 34°11' E 135°01'515.7
2017-Oct-13 07:30N 34°13' E 135°07'1 1.9
2017-Oct-13 07:00N 34°13' E 135°09'0 0.4
2017-Oct-13 06:31N 34°13' E 135°08'11 2.6
2017-Oct-13 02:21N 34°09' E 134°56'514.9
2017-Oct-13 02:00N 34°11' E 135°02'611.6
2017-Oct-13 01:30N 34°13' E 135°09'1 1.0
2017-Oct-13 01:01N 34°13' E 135°08'9 2.4
2017-Oct-12 21:12N 34°10' E 134°58'316.9
2017-Oct-12 21:00N 34°11' E 135°01'612.6
2017-Oct-12 20:30N 34°13' E 135°09'1 1.6
2017-Oct-12 20:00N 34°13' E 135°08'714.8
2017-Oct-12 19:30N 34°08' E 135°00'2 0.4
2017-Oct-12 13:16N 34°11' E 134°59'414.8
2017-Oct-12 13:00N 34°12' E 135°04'4 8.5
2017-Oct-12 12:31N 34°13' E 135°09'0 0.0
2017-Oct-12 12:00N 34°13' E 135°09'10 2.4
2017-Oct-12 08:04N 34°10' E 134°58'116.3
2017-Oct-12 08:01N 34°10' E 134°59'815.7
2017-Oct-12 07:30N 34°13' E 135°08'1 1.7
2017-Oct-12 07:00N 34°13' E 135°09'0 0.8
2017-Oct-12 06:30N 34°13' E 135°08'714.8
2017-Oct-12 06:01N 34°11' E 134°60'2 0.7
2017-Oct-12 02:20N 34°10' E 134°57'514.9
2017-Oct-12 02:00N 34°12' E 135°02'510.8
2017-Oct-12 01:31N 34°13' E 135°09'1 1.8
2017-Oct-12 01:01N 34°13' E 135°08'8 2.1
2017-Oct-11 21:11N 34°10' E 134°58'316.2
2017-Oct-11 21:01N 34°11' E 135°02'612.2
2017-Oct-11 20:30N 34°13' E 135°09'1 1.0
2017-Oct-11 20:00N 34°13' E 135°08'8 0.4
2017-Oct-10 21:09N 34°10' E 134°59'316.4
2017-Oct-10 21:00N 34°11' E 135°02'612.6
2017-Oct-10 20:30N 34°13' E 135°09'1 1.6
2017-Oct-10 20:00N 34°13' E 135°08'714.4
2017-Oct-10 19:30N 34°09' E 134°60'3 0.6
2017-Oct-10 13:28N 34°10' E 134°56'714.6
2017-Oct-10 13:00N 34°12' E 135°03'4 9.0
2017-Oct-10 12:31N 34°13' E 135°09'0 0.0
2017-Oct-10 12:00N 34°13' E 135°09'713.0
2017-Oct-10 11:30N 34°11' E 135°01'1 0.3
2017-Oct-10 07:56N 34°11' E 134°60'715.7
2017-Oct-10 07:30N 34°13' E 135°07'1 2.0
2017-Oct-10 07:01N 34°13' E 135°09'0 0.6
2017-Oct-10 06:30N 34°13' E 135°08'714.4
2017-Oct-10 06:00N 34°10' E 135°00'3 1.0
2017-Oct-10 02:22N 34°10' E 134°56'514.7
2017-Oct-10 02:01N 34°12' E 135°02'611.0
2017-Oct-10 01:30N 34°13' E 135°09'1 1.5
2017-Oct-10 01:00N 34°13' E 135°08'814.5
2017-Oct-10 00:29N 34°10' E 134°59'  

Dump ship's entire track history